Time;durP1;ratioP1;P1;durP2;ratioP2;P2;SDS_P1;SDS_P2;PMS_P1;PMS_P2;Temp;Humidity;BMP_temperature;BMP_pressure;BME280_temperature;BME280_humidity;BME280_pressure;Samples;Min_cycle;Max_cycle;Signal;HPM_P1;HPM_P2
2021/07/19 00:01:06;;;;;;;10.97;9.13;;;;;;;25.95;100.00;99410.64;1640199;85;20955;-61
2021/07/19 00:03:32;;;;;;;10.90;8.97;;;;;;;25.98;100.00;99410.00;1638719;85;21058;-62
2021/07/19 00:05:59;;;;;;;12.37;9.07;;;;;;;25.62;100.00;99404.73;1627302;85;21133;-61
2021/07/19 00:08:25;;;;;;;10.90;8.20;;;;;;;25.63;100.00;99404.97;1639847;85;21682;-61
2021/07/19 00:10:53;;;;;;;16.00;11.73;;;;;;;25.55;100.00;99409.70;1639318;85;20975;-62
2021/07/19 00:13:20;;;;;;;16.00;13.57;;;;;;;25.39;100.00;99407.39;1668416;84;20986;-62
2021/07/19 00:15:47;;;;;;;22.37;15.43;;;;;;;25.35;100.00;99409.09;1628514;85;21035;-62
2021/07/19 00:18:13;;;;;;;20.67;15.60;;;;;;;25.19;100.00;99411.83;1611388;87;22067;-63
2021/07/19 00:20:41;;;;;;;19.53;16.00;;;;;;;25.36;100.00;99417.88;1669025;84;21088;-62
2021/07/19 00:23:07;;;;;;;17.67;15.87;;;;;;;25.29;100.00;99420.95;1600754;87;20963;-63
2021/07/19 00:25:35;;;;;;;18.13;15.00;;;;;;;25.13;100.00;99415.71;1668825;84;21006;-62
2021/07/19 00:28:04;;;;;;;16.03;14.33;;;;;;;25.12;100.00;99425.59;1643815;85;21540;-62
2021/07/19 00:30:33;;;;;;;15.97;13.73;;;;;;;25.00;100.00;99422.09;1644670;85;21577;-61
2021/07/19 00:33:00;;;;;;;16.03;12.03;;;;;;;25.14;100.00;99415.41;1644697;85;21034;-62
2021/07/19 00:35:29;;;;;;;18.93;13.60;;;;;;;25.14;100.00;99422.62;1644742;85;21065;-63
2021/07/19 00:37:55;;;;;;;18.13;12.57;;;;;;;25.05;100.00;99417.73;1643727;85;21078;-59
2021/07/19 00:40:26;;;;;;;14.30;12.37;;;;;;;25.07;100.00;99416.88;1633550;85;21582;-62
2021/07/19 00:42:53;;;;;;;17.30;12.93;;;;;;;25.06;100.00;99416.08;1645001;85;22350;-62
2021/07/19 00:45:26;;;;;;;14.70;12.63;;;;;;;25.12;100.00;99422.14;1644534;85;21816;-62
2021/07/19 00:47:54;;;;;;;14.40;12.23;;;;;;;25.06;100.00;99423.30;1601569;87;21541;-59
2021/07/19 00:50:22;;;;;;;17.33;12.27;;;;;;;25.05;100.00;99422.52;1639024;85;21483;-62
2021/07/19 00:52:50;;;;;;;13.80;11.30;;;;;;;25.19;100.00;99419.83;1638941;85;20907;-63
2021/07/19 00:55:19;;;;;;;14.67;10.67;;;;;;;25.15;100.00;99418.85;1638910;85;21188;-63
2021/07/19 00:57:48;;;;;;;14.33;10.87;;;;;;;25.02;100.00;99420.98;1628045;85;21548;-60
2021/07/19 01:00:15;;;;;;;11.33;9.30;;;;;;;24.91;100.00;99416.41;1639257;85;21121;-64
2021/07/19 01:02:48;;;;;;;11.60;8.50;;;;;;;24.95;100.00;99422.17;1632400;85;20967;-64
2021/07/19 01:05:15;;;;;;;14.00;9.73;;;;;;;25.12;100.00;99420.27;1606603;87;21087;-63
2021/07/19 01:07:41;;;;;;;12.67;8.73;;;;;;;24.99;100.00;99421.81;1645638;84;21225;-63
2021/07/19 01:10:14;;;;;;;12.97;8.70;;;;;;;25.10;100.00;99418.42;1619527;86;21483;-63
2021/07/19 01:12:43;;;;;;;9.97;8.97;;;;;;;24.96;100.00;99422.44;1646722;85;21109;-63
2021/07/19 01:15:11;;;;;;;12.10;8.83;;;;;;;24.94;100.00;99420.60;1646925;85;21096;-63
2021/07/19 01:17:38;;;;;;;12.13;7.87;;;;;;;24.93;100.00;99424.36;1645543;85;21113;-63
2021/07/19 01:20:07;;;;;;;10.80;8.00;;;;;;;24.94;100.00;99423.81;1646982;85;21188;-62
2021/07/19 01:23:32;;;;;;;12.60;8.97;;;;;;;24.99;100.00;99417.81;1635019;85;21547;-71
2021/07/19 01:26:38;;;;;;;8.63;7.83;;;;;;;24.90;100.00;99418.84;1611133;86;21018;-71
2021/07/19 01:29:06;;;;;;;14.27;8.73;;;;;;;24.84;100.00;99424.02;1659685;84;21065;-68
2021/07/19 01:31:37;;;;;;;9.47;7.37;;;;;;;24.80;100.00;99420.37;1646632;85;21117;-67
2021/07/19 01:34:08;;;;;;;8.15;7.17;;;;;;;24.88;100.00;99419.12;1646372;85;21145;-60
2021/07/19 01:36:38;;;;;;;9.10;7.97;;;;;;;24.99;100.00;99421.03;1646265;85;21574;-69
2021/07/19 01:39:25;;;;;;;9.63;7.43;;;;;;;24.90;100.00;99424.95;1634225;85;21046;-70
2021/07/19 01:41:53;;;;;;;11.20;8.03;;;;;;;24.98;100.00;99422.91;1646376;85;21035;-61
2021/07/19 01:44:21;;;;;;;8.87;7.17;;;;;;;25.00;100.00;99421.27;1667061;84;21356;-67
2021/07/19 01:46:48;;;;;;;10.10;6.97;;;;;;;25.10;100.00;99434.98;1634470;86;21142;-69
2021/07/19 01:49:15;;;;;;;9.00;7.37;;;;;;;25.21;100.00;99431.00;1661793;84;20939;-69
2021/07/19 01:51:42;;;;;;;9.97;8.30;;;;;;;25.25;100.00;99433.31;1667193;84;21042;-69
2021/07/19 01:54:10;;;;;;;12.40;8.60;;;;;;;25.25;100.00;99438.64;1645076;85;21014;-65
2021/07/19 01:56:37;;;;;;;11.83;8.40;;;;;;;25.38;100.00;99443.17;1635410;85;21139;-69
2021/07/19 01:59:04;;;;;;;11.27;9.00;;;;;;;25.44;100.00;99441.16;1617101;84;21163;-68
2021/07/19 02:01:34;;;;;;;10.13;9.00;;;;;;;25.18;100.00;99436.38;1666169;84;21070;-70
2021/07/19 02:04:01;;;;;;;12.77;8.37;;;;;;;25.18;100.00;99439.05;1645338;85;21441;-62
2021/07/19 02:06:27;;;;;;;14.63;8.40;;;;;;;25.14;100.00;99437.28;1628163;86;21173;-69
2021/07/19 02:09:01;;;;;;;12.43;9.17;;;;;;;25.17;100.00;99438.81;1613710;87;21612;-70
2021/07/19 02:11:30;;;;;;;11.07;9.47;;;;;;;25.09;100.00;99445.37;1614703;86;21115;-61
2021/07/19 02:13:58;;;;;;;10.90;9.00;;;;;;;25.20;100.00;99444.89;1637868;86;21086;-66
2021/07/19 02:16:32;;;;;;;10.90;8.70;;;;;;;25.16;100.00;99452.45;1639401;86;21580;-70
2021/07/19 02:18:57;;;;;;;12.90;10.00;;;;;;;25.35;100.00;99453.11;1612129;87;21110;-71
2021/07/19 02:21:26;;;;;;;12.80;10.23;;;;;;;25.57;100.00;99456.36;1606528;86;21358;-71
2021/07/19 02:24:11;;;;;;;13.23;11.07;;;;;;;25.75;100.00;99453.25;1625777;86;21468;-71
2021/07/19 02:26:46;;;;;;;13.33;10.90;;;;;;;26.02;100.00;99451.02;1627254;86;21893;-70
2021/07/19 02:29:13;;;;;;;12.63;10.00;;;;;;;26.15;100.00;99456.84;1632071;86;21094;-62
2021/07/19 02:31:40;;;;;;;11.60;10.40;;;;;;;26.32;100.00;99456.69;1605417;86;21083;-65
2021/07/19 02:34:07;;;;;;;11.90;10.30;;;;;;;26.66;100.00;99456.08;1632319;86;21118;-69
2021/07/19 02:36:34;;;;;;;13.37;10.40;;;;;;;26.88;100.00;99457.33;1631884;86;21161;-70
2021/07/19 02:39:00;;;;;;;13.77;11.23;;;;;;;27.18;100.00;99456.23;1585115;87;21169;-70
2021/07/19 02:41:29;;;;;;;11.47;10.27;;;;;;;27.38;100.00;99446.80;1630407;86;22196;-69
2021/07/19 02:44:02;;;;;;;14.40;11.23;;;;;;;27.62;100.00;99454.38;1631567;86;20979;-70
2021/07/19 02:46:31;;;;;;;12.58;10.40;;;;;;;27.75;100.00;99453.44;1630024;86;21113;-70
2021/07/19 02:48:58;;;;;;;13.33;10.13;;;;;;;27.99;100.00;99457.50;1631513;86;21845;-62
2021/07/19 02:51:27;;;;;;;14.13;9.77;;;;;;;28.34;100.00;99460.89;1632110;86;21002;-60
2021/07/19 02:53:55;;;;;;;13.05;10.35;;;;;;;28.51;100.00;99455.48;1606080;86;21495;-70
2021/07/19 02:56:22;;;;;;;12.50;10.43;;;;;;;28.77;100.00;99452.67;1620995;86;21039;-71
2021/07/19 02:58:50;;;;;;;11.43;9.33;;;;;;;28.82;100.00;99459.75;1624961;86;21525;-61
2021/07/19 03:01:20;;;;;;;12.10;9.43;;;;;;;29.22;100.00;99456.14;1661999;82;21643;-66
2021/07/19 03:03:47;;;;;;;14.23;10.23;;;;;;;29.70;100.00;99460.22;1683354;83;21006;-70
2021/07/19 03:06:25;;;;;;;12.70;9.68;;;;;;;30.53;100.00;99458.38;1693960;82;21334;-68
2021/07/19 03:08:53;;;;;;;11.83;10.72;;;;;;;30.81;100.00;99457.19;1657188;84;21497;-61
2021/07/19 03:11:43;;;;;;;12.73;10.98;;;;;;;31.35;100.00;99450.72;1663611;84;20980;-70
2021/07/19 03:14:17;;;;;;;11.95;10.78;;;;;;;32.03;100.00;99452.58;1675976;84;21323;-68
2021/07/19 03:16:44;;;;;;;11.57;9.45;;;;;;;32.75;100.00;99455.11;1665628;84;21083;-71
2021/07/19 03:19:14;;;;;;;10.80;9.70;;;;;;;33.15;100.00;99452.94;1680220;84;22355;-71
2021/07/19 03:21:43;;;;;;;13.35;10.08;;;;;;;33.63;100.00;99453.52;1679315;84;21453;-72
2021/07/19 03:24:12;;;;;;;10.58;9.35;;;;;;;34.22;100.00;99450.73;1674297;84;21032;-72
2021/07/19 03:26:40;;;;;;;12.65;9.55;;;;;;;34.69;94.22;99452.25;1668692;84;21710;-71
2021/07/19 03:29:08;;;;;;;12.37;9.28;;;;;;;35.08;85.96;99452.25;1633289;85;21411;-61
2021/07/19 03:31:36;;;;;;;11.85;9.50;;;;;;;35.45;80.72;99450.16;1679082;84;21834;-72
2021/07/19 03:34:05;;;;;;;10.30;9.25;;;;;;;35.94;75.31;99449.15;1686615;82;20992;-70
2021/07/19 03:36:32;;;;;;;11.97;8.50;;;;;;;36.33;69.26;99444.65;1699322;82;21552;-66
2021/07/19 03:39:00;;;;;;;9.98;8.98;;;;;;;36.68;66.43;99449.59;1703668;82;21151;-72
2021/07/19 03:41:32;;;;;;;8.70;7.85;;;;;;;37.07;61.54;99452.34;1695521;82;21616;-71
2021/07/19 03:44:01;;;;;;;10.28;8.48;;;;;;;37.44;59.37;99450.19;1696853;82;21051;-72
2021/07/19 03:46:28;;;;;;;10.18;9.10;;;;;;;37.62;57.44;99456.23;1664192;84;21062;-67
2021/07/19 03:48:55;;;;;;;12.63;8.15;;;;;;;37.83;54.29;99452.80;1697431;82;20911;-70
2021/07/19 03:51:22;;;;;;;10.32;8.75;;;;;;;37.74;52.59;99454.53;1683243;82;21845;-71
2021/07/19 03:53:50;;;;;;;10.08;8.40;;;;;;;37.74;51.99;99451.81;1661498;82;21002;-71
2021/07/19 03:56:17;;;;;;;14.18;9.85;;;;;;;38.08;50.78;99452.85;1693268;82;21433;-72
2021/07/19 03:58:44;;;;;;;10.13;9.13;;;;;;;38.14;51.11;99455.36;1687172;82;21019;-62
2021/07/19 04:01:12;;;;;;;18.48;12.07;;;;;;;38.57;49.43;99462.19;1636231;84;21153;-69
2021/07/19 04:03:48;;;;;;;15.63;11.90;;;;;;;39.02;47.52;99460.55;1685184;83;21168;-67
2021/07/19 04:06:17;;;;;;;14.78;10.38;;;;;;;39.36;46.56;99460.81;1646389;84;20892;-65
2021/07/19 04:08:47;;;;;;;12.78;8.53;;;;;;;39.62;44.44;99461.43;1668752;84;21043;-63
2021/07/19 04:11:19;;;;;;;12.95;8.38;;;;;;;40.00;43.51;99457.50;1681880;83;21077;-65
2021/07/19 04:13:48;;;;;;;10.23;7.92;;;;;;;40.28;42.11;99457.90;1675281;84;20946;-68
2021/07/19 04:16:19;;;;;;;9.53;7.87;;;;;;;40.62;41.12;99457.22;1675641;83;21168;-67
2021/07/19 04:18:49;;;;;;;8.73;6.90;;;;;;;40.79;40.46;99454.27;1679606;83;21022;-67
2021/07/19 04:21:17;;;;;;;10.82;8.25;;;;;;;41.01;39.98;99455.44;1656822;85;21007;-67
2021/07/19 04:23:44;;;;;;;9.40;7.95;;;;;;;41.15;39.33;99451.75;1679002;84;20916;-68
2021/07/19 04:26:18;;;;;;;9.83;8.23;;;;;;;41.45;38.68;99453.13;1688310;83;20972;-67
2021/07/19 04:28:47;;;;;;;12.10;10.75;;;;;;;41.72;37.16;99449.02;1684370;83;21152;-61
2021/07/19 04:31:16;;;;;;;15.08;13.53;;;;;;;41.83;37.04;99451.63;1687288;83;21592;-67
2021/07/19 04:33:45;;;;;;;17.77;15.05;;;;;;;41.99;36.78;99455.09;1659043;84;21071;-69
2021/07/19 04:36:13;;;;;;;19.42;15.53;;;;;;;42.21;36.17;99452.17;1681259;84;20931;-67
2021/07/19 04:38:40;;;;;;;17.65;15.28;;;;;;;42.56;35.26;99458.83;1688502;83;21076;-66
2021/07/19 04:41:08;;;;;;;15.68;14.05;;;;;;;42.60;34.65;99456.80;1683662;84;21654;-67
2021/07/19 04:43:34;;;;;;;13.08;11.68;;;;;;;42.73;34.78;99451.64;1690398;84;21085;-68
2021/07/19 04:46:01;;;;;;;13.25;11.55;;;;;;;42.74;34.25;99446.97;1681988;84;20967;-67
2021/07/19 04:48:28;;;;;;;14.03;11.05;;;;;;;42.73;34.05;99450.28;1688798;83;21016;-67
2021/07/19 04:50:55;;;;;;;12.28;10.10;;;;;;;42.46;34.59;99457.22;1687462;84;21006;-61
2021/07/19 04:53:21;;;;;;;26.12;11.08;;;;;;;42.23;34.93;99452.52;1687845;84;21097;-65
2021/07/19 04:55:51;;;;;;;9.95;7.60;;;;;;;42.49;35.37;99456.39;1682340;84;21593;-68
2021/07/19 04:58:20;;;;;;;;;;;;;;;43.12;33.85;99450.13;1676132;84;21075;-68
2021/07/19 05:00:50;;;;;;;12.68;8.30;;;;;;;43.59;32.61;99449.12;1687552;84;20148;-67
2021/07/19 05:03:17;;;;;;;8.40;7.42;;;;;;;43.89;31.42;99452.94;1693399;82;21124;-67
2021/07/19 05:05:43;;;;;;;9.65;7.28;;;;;;;44.06;30.60;99446.05;1682044;82;21470;-68
2021/07/19 05:08:10;;;;;;;11.03;7.72;;;;;;;43.80;30.15;99447.26;1696831;83;21118;-68
2021/07/19 05:10:39;;;;;;;8.00;6.72;;;;;;;43.59;30.37;99452.64;1687325;82;21062;-62
2021/07/19 05:13:06;;;;;;;9.85;6.75;;;;;;;43.71;30.96;99451.95;1655433;82;21137;-65
2021/07/19 05:15:33;;;;;;;7.35;6.60;;;;;;;43.91;29.86;99451.92;1661561;84;21038;-67
2021/07/19 05:18:01;;;;;;;8.28;7.15;;;;;;;43.84;29.55;99451.30;1682434;82;21172;-67
2021/07/19 05:20:29;;;;;;;8.15;6.62;;;;;;;43.76;29.79;99448.52;1685841;82;20935;-67
2021/07/19 05:22:56;;;;;;;11.48;7.35;;;;;;;44.20;29.68;99443.71;1685970;83;20950;-68
2021/07/19 05:25:31;;;;;;;9.18;6.67;;;;;;;44.65;28.97;99447.67;1689828;82;21061;-62
2021/07/19 05:28:07;;;;;;;11.83;7.10;;;;;;;44.89;28.60;99436.58;1685183;82;21363;-67
2021/07/19 05:30:37;;;;;;;10.68;6.97;;;;;;;45.48;28.15;99438.62;1695073;82;21165;-65
2021/07/19 05:33:04;;;;;;;;;;;;;;;45.61;27.38;99433.86;1699332;82;21860;-66
2021/07/19 05:35:31;;;;;;;7.65;6.85;;;;;;;45.34;26.94;99447.28;1693215;82;20222;-66
2021/07/19 05:37:57;;;;;;;8.35;7.65;;;;;;;45.34;26.94;99447.28;1685907;82;21120;-68
2021/07/19 05:40:24;;;;;;;10.15;7.67;;;;;;;44.77;28.35;99441.45;1696982;82;21631;-61
2021/07/19 05:42:50;;;;;;;9.30;7.78;;;;;;;44.92;28.33;99443.20;1696601;83;21668;-67
2021/07/19 05:45:17;;;;;;;8.53;7.17;;;;;;;44.77;27.99;99436.56;1696844;82;21137;-61
2021/07/19 05:47:44;;;;;;;9.60;7.22;;;;;;;44.48;29.09;99438.72;1684362;82;21071;-66
2021/07/19 05:50:11;;;;;;;10.20;7.70;;;;;;;44.38;29.56;99432.29;1696495;83;21019;-66
2021/07/19 05:52:39;;;;;;;8.48;7.37;;;;;;;44.60;29.18;99437.22;1685479;83;21065;-61
2021/07/19 05:55:07;;;;;;;9.95;7.25;;;;;;;44.47;28.75;99442.65;1693006;83;21784;-67
2021/07/19 05:57:34;;;;;;;9.28;8.15;;;;;;;43.67;29.40;99440.89;1693067;83;21035;-65
2021/07/19 06:00:03;;;;;;;9.60;7.83;;;;;;;43.14;30.02;99443.61;1664134;84;22419;-66
2021/07/19 06:02:31;;;;;;;9.03;7.70;;;;;;;43.20;31.05;99441.16;1675616;84;21071;-65
2021/07/19 06:04:59;;;;;;;8.50;7.45;;;;;;;42.96;30.98;99441.80;1674966;84;20976;-67
2021/07/19 06:07:26;;;;;;;8.35;6.17;;;;;;;42.75;31.62;99438.31;1677589;84;21159;-63
2021/07/19 06:09:52;;;;;;;8.98;6.60;;;;;;;42.94;31.12;99435.98;1674205;84;20999;-68
2021/07/19 06:12:19;;;;;;;10.30;7.33;;;;;;;43.09;30.94;99440.00;1676541;84;21830;-67
2021/07/19 06:14:45;;;;;;;8.43;6.62;;;;;;;43.33;30.50;99436.53;1672948;84;21039;-60
2021/07/19 06:17:13;;;;;;;7.10;6.37;;;;;;;43.59;29.58;99430.69;1675337;84;21011;-66
2021/07/19 06:19:41;;;;;;;8.25;6.08;;;;;;;43.47;30.05;99432.13;1672178;84;21344;-62
2021/07/19 06:22:10;;;;;;;7.72;6.12;;;;;;;43.60;30.11;99435.56;1657388;84;20908;-67
2021/07/19 06:24:37;;;;;;;6.97;6.28;;;;;;;43.41;29.71;99434.41;1675765;84;20948;-67
2021/07/19 06:27:07;;;;;;;7.60;5.83;;;;;;;43.27;30.12;99438.26;1676395;84;21005;-63
2021/07/19 06:29:34;;;;;;;10.95;6.15;;;;;;;43.20;30.01;99432.32;1676242;84;21026;-66
2021/07/19 06:32:01;;;;;;;7.90;6.15;;;;;;;43.20;30.03;99432.92;1671383;84;21168;-66
2021/07/19 06:34:29;;;;;;;8.70;6.60;;;;;;;43.11;29.24;99432.11;1667035;84;21423;-67
2021/07/19 06:36:56;;;;;;;7.73;6.27;;;;;;;42.89;30.29;99435.13;1664797;84;21071;-66
2021/07/19 06:39:23;;;;;;;8.53;6.17;;;;;;;43.02;29.87;99432.50;1663489;84;21862;-66
2021/07/19 06:41:49;;;;;;;6.90;6.08;;;;;;;43.02;30.84;99433.87;1673093;84;22453;-61
2021/07/19 06:44:16;;;;;;;8.13;6.12;;;;;;;43.43;30.01;99430.05;1682933;84;21181;-67
2021/07/19 06:46:43;;;;;;;9.10;6.50;;;;;;;43.95;29.49;99429.26;1665425;84;21414;-68
2021/07/19 06:49:10;;;;;;;7.78;6.10;;;;;;;44.31;28.87;99426.22;1670353;84;21576;-61
2021/07/19 06:51:37;;;;;;;9.93;6.10;;;;;;;44.61;28.43;99428.52;1674233;84;21095;-65
2021/07/19 06:54:04;;;;;;;7.47;6.17;;;;;;;44.95;28.18;99427.20;1676765;84;21088;-63
2021/07/19 06:56:32;;;;;;;8.93;6.33;;;;;;;45.18;27.56;99422.02;1663416;84;21386;-67
2021/07/19 06:58:58;;;;;;;13.78;7.08;;;;;;;45.45;26.93;99421.61;1680362;84;21497;-70
2021/07/19 07:01:25;;;;;;;10.48;5.92;;;;;;;45.60;27.59;99421.31;1669361;84;21066;-67
2021/07/19 07:03:52;;;;;;;8.85;6.53;;;;;;;45.93;26.44;99419.69;1667098;84;21026;-69
2021/07/19 07:06:19;;;;;;;6.90;5.60;;;;;;;46.21;26.03;99422.09;1668720;84;21008;-66
2021/07/19 07:08:45;;;;;;;8.95;6.03;;;;;;;46.52;24.91;99416.65;1676992;84;21965;-65
2021/07/19 07:11:13;;;;;;;9.63;6.00;;;;;;;46.80;24.77;99419.63;1676209;84;20945;-63
2021/07/19 07:13:41;;;;;;;7.72;6.28;;;;;;;46.90;24.30;99412.91;1679713;84;21535;-66
2021/07/19 07:16:09;;;;;;;8.97;6.30;;;;;;;47.02;24.20;99417.62;1677385;84;21008;-65
2021/07/19 07:18:37;;;;;;;12.15;6.53;;;;;;;46.96;24.47;99416.66;1668990;84;21600;-65
2021/07/19 07:21:05;;;;;;;7.53;6.15;;;;;;;47.02;24.09;99416.86;1671880;84;21231;-61
2021/07/19 07:23:32;;;;;;;8.20;6.97;;;;;;;47.12;24.03;99419.80;1672260;84;21080;-65
2021/07/19 07:25:58;;;;;;;10.28;6.55;;;;;;;46.98;24.49;99413.44;1670364;84;21114;-61
2021/07/19 07:28:25;;;;;;;9.38;6.30;;;;;;;46.66;23.38;99415.40;1681495;84;21886;-65
2021/07/19 07:30:51;;;;;;;11.68;6.65;;;;;;;46.23;24.82;99418.91;1677258;84;21597;-64
2021/07/19 07:33:18;;;;;;;10.58;6.25;;;;;;;46.19;24.82;99412.72;1679759;84;21167;-67
2021/07/19 07:35:46;;;;;;;10.08;6.40;;;;;;;46.10;24.43;99414.77;1677348;84;21347;-64
2021/07/19 07:38:12;;;;;;;8.50;6.30;;;;;;;45.89;24.52;99416.90;1678764;84;20952;-64
2021/07/19 07:40:39;;;;;;;9.35;6.83;;;;;;;45.55;25.67;99420.50;1677407;84;21353;-63
2021/07/19 07:43:05;;;;;;;6.70;5.55;;;;;;;45.85;24.48;99422.52;1679320;84;21494;-63
2021/07/19 07:45:32;;;;;;;8.33;5.45;;;;;;;45.86;24.67;99411.66;1669318;85;21140;-61
2021/07/19 07:47:58;;;;;;;11.55;5.80;;;;;;;45.98;24.40;99412.23;1677239;84;21191;-61
2021/07/19 07:50:25;;;;;;;8.78;5.92;;;;;;;46.28;24.45;99411.44;1677705;84;21074;-65
2021/07/19 07:52:51;;;;;;;8.58;6.40;;;;;;;46.67;23.96;99412.03;1675512;84;21030;-64
2021/07/19 07:55:18;;;;;;;8.58;6.33;;;;;;;46.75;24.23;99407.20;1658786;84;21004;-63
2021/07/19 07:57:44;;;;;;;8.23;5.80;;;;;;;46.93;23.66;99409.26;1666897;84;21806;-64
2021/07/19 08:00:19;;;;;;;9.23;5.78;;;;;;;46.90;23.52;99403.88;1677385;84;21956;-65
2021/07/19 08:02:46;;;;;;;10.32;6.53;;;;;;;46.73;24.15;99407.48;1664374;84;21015;-66
2021/07/19 08:05:13;;;;;;;6.85;5.37;;;;;;;46.61;23.76;99404.20;1654357;84;21637;-66
2021/07/19 08:07:42;;;;;;;7.23;5.53;;;;;;;45.38;25.15;99403.30;1657927;84;21069;-61
2021/07/19 08:10:11;;;;;;;6.53;5.92;;;;;;;45.77;24.29;99407.42;1648238;85;21115;-65
2021/07/19 08:12:38;;;;;;;8.75;5.37;;;;;;;46.04;23.93;99400.81;1655976;84;21597;-65
2021/07/19 08:15:08;;;;;;;5.95;5.15;;;;;;;45.87;23.96;99403.55;1650799;85;21017;-64
2021/07/19 08:17:34;;;;;;;7.80;5.58;;;;;;;45.50;23.85;99401.80;1652526;84;21020;-61
2021/07/19 08:20:01;;;;;;;12.37;6.35;;;;;;;45.15;24.52;99403.03;1651351;84;21130;-65
2021/07/19 08:22:28;;;;;;;7.40;5.72;;;;;;;45.27;24.44;99400.11;1673440;82;21124;-64
2021/07/19 08:24:54;;;;;;;10.70;6.40;;;;;;;45.66;24.39;99396.00;1687783;82;21008;-65
2021/07/19 08:27:21;;;;;;;6.87;5.33;;;;;;;46.19;23.81;99396.95;1708581;82;21061;-65
2021/07/19 08:29:49;;;;;;;6.83;5.53;;;;;;;46.68;23.26;99386.77;1701867;82;21058;-66
2021/07/19 08:32:16;;;;;;;9.83;5.67;;;;;;;46.97;22.64;99389.84;1687851;82;21454;-66
2021/07/19 08:34:48;;;;;;;6.87;5.28;;;;;;;47.13;22.50;99392.97;1670166;82;21168;-66
2021/07/19 08:37:14;;;;;;;10.15;6.35;;;;;;;47.18;22.54;99388.25;1682716;82;21546;-65
2021/07/19 08:39:41;;;;;;;;;;;;;;;47.25;22.30;99385.21;1678565;82;21094;-61
2021/07/19 08:42:13;;;;;;;23.60;7.00;;;;;;;47.61;21.73;99379.63;1676973;82;21095;-62
2021/07/19 08:44:41;;;;;;;10.25;6.30;;;;;;;47.72;21.00;99384.13;1680465;82;21009;-66
2021/07/19 08:47:09;;;;;;;10.53;5.78;;;;;;;47.83;20.58;99378.92;1695410;82;21134;-65
2021/07/19 08:49:36;;;;;;;10.38;5.67;;;;;;;47.86;20.67;99378.01;1685774;82;21047;-66
2021/07/19 08:52:05;;;;;;;9.50;6.45;;;;;;;47.78;20.24;99372.64;1692186;83;21101;-64
2021/07/19 08:54:35;;;;;;;9.10;6.13;;;;;;;47.67;20.11;99366.77;1686949;82;21745;-64
2021/07/19 08:57:04;;;;;;;8.63;5.53;;;;;;;47.37;20.29;99360.88;1687957;82;21034;-65
2021/07/19 08:59:31;;;;;;;7.05;5.37;;;;;;;47.01;20.58;99360.89;1701876;82;21091;-62
2021/07/19 09:02:01;;;;;;;9.78;5.90;;;;;;;46.82;21.87;99351.73;1693586;82;22351;-64
2021/07/19 09:04:26;;;;;;;7.47;5.70;;;;;;;46.86;21.30;99361.88;1703925;82;21060;-64
2021/07/19 09:06:55;;;;;;;7.03;6.30;;;;;;;46.58;20.96;99347.34;1697566;82;21481;-64
2021/07/19 09:09:29;;;;;;;7.40;5.95;;;;;;;46.31;22.07;99357.57;1685063;82;20947;-63
2021/07/19 09:11:57;;;;;;;8.48;5.67;;;;;;;46.22;21.84;99354.77;1690804;82;21132;-65
2021/07/19 09:14:25;;;;;;;8.43;5.92;;;;;;;46.24;22.27;99346.80;1690184;82;21069;-65
2021/07/19 09:16:52;;;;;;;12.88;6.05;;;;;;;46.51;21.42;99346.20;1692494;82;21153;-64
2021/07/19 09:19:25;;;;;;;7.90;5.58;;;;;;;46.81;21.82;99344.69;1698020;82;21028;-61
2021/07/19 09:21:57;;;;;;;9.25;5.15;;;;;;;46.85;21.46;99342.41;1698981;82;21137;-63
2021/07/19 09:24:27;;;;;;;8.78;6.08;;;;;;;46.75;21.77;99347.11;1692674;82;21159;-64
2021/07/19 09:26:54;;;;;;;;;;;;;;;46.38;22.31;99354.41;1692816;82;21497;-64
2021/07/19 09:29:23;;;;;;;8.80;6.20;;;;;;;46.33;21.56;99346.84;1684242;82;20225;-62
2021/07/19 09:31:55;;;;;;;9.60;5.25;;;;;;;46.22;21.67;99342.36;1696880;82;21016;-64
2021/07/19 09:34:28;;;;;;;7.47;5.50;;;;;;;46.24;21.59;99341.91;1698717;82;21614;-63
2021/07/19 09:37:04;;;;;;;9.68;5.35;;;;;;;46.30;21.42;99338.13;1696130;82;21145;-61
2021/07/19 09:39:49;;;;;;;7.75;5.00;;;;;;;46.27;21.52;99342.39;1693536;82;21022;-64
2021/07/19 09:42:24;;;;;;;6.60;5.47;;;;;;;45.94;21.60;99337.21;1698150;82;21059;-65
2021/07/19 09:44:57;;;;;;;7.80;4.85;;;;;;;45.56;21.16;99343.58;1697798;82;21150;-61
2021/07/19 09:47:40;;;;;;;8.68;5.03;;;;;;;45.00;21.24;99342.76;1698513;82;20959;-65
2021/07/19 09:50:18;;;;;;;8.65;4.95;;;;;;;44.75;22.28;99340.02;1683359;82;21175;-66
2021/07/19 09:52:46;;;;;;;6.75;4.80;;;;;;;45.00;22.29;99335.88;1687306;82;22422;-64
2021/07/19 09:55:23;;;;;;;14.50;6.30;;;;;;;45.71;22.09;99334.84;1685476;82;21834;-66
2021/07/19 09:57:57;;;;;;;9.35;5.53;;;;;;;46.23;21.38;99328.73;1692654;82;21067;-66
2021/07/19 10:00:26;;;;;;;10.38;5.90;;;;;;;46.20;21.09;99324.70;1698685;82;20963;-61
2021/07/19 10:02:53;;;;;;;9.43;5.47;;;;;;;46.32;22.05;99332.16;1697216;82;21168;-65
2021/07/19 10:05:28;;;;;;;7.62;5.55;;;;;;;46.66;21.33;99331.30;1688468;82;21533;-63
2021/07/19 10:07:56;;;;;;;11.22;5.83;;;;;;;46.71;21.46;99330.70;1695142;82;21071;-65
2021/07/19 10:10:37;;;;;;;7.95;5.65;;;;;;;46.69;21.30;99318.61;1702370;82;21001;-63
2021/07/19 10:13:05;;;;;;;6.12;5.37;;;;;;;46.55;21.78;99326.77;1697080;82;21071;-65
2021/07/19 10:15:32;;;;;;;8.65;5.58;;;;;;;46.37;21.61;99324.67;1702550;82;21180;-63
2021/07/19 10:18:01;;;;;;;8.55;5.97;;;;;;;46.30;21.22;99324.34;1695385;82;21094;-60
2021/07/19 10:20:28;;;;;;;8.95;5.30;;;;;;;46.34;21.43;99325.59;1703831;82;21990;-64
2021/07/19 10:22:54;;;;;;;6.95;5.30;;;;;;;46.39;21.86;99320.11;1694657;82;21015;-64
2021/07/19 10:25:21;;;;;;;9.20;5.35;;;;;;;46.29;21.94;99318.66;1666975;84;21007;-62
2021/07/19 10:27:47;;;;;;;8.53;5.00;;;;;;;46.12;22.41;99321.44;1700576;82;21139;-65
2021/07/19 10:30:17;;;;;;;11.00;5.30;;;;;;;45.99;21.22;99317.96;1702678;82;20971;-63
2021/07/19 10:32:44;;;;;;;6.90;5.30;;;;;;;45.62;21.71;99314.28;1689106;82;21340;-63
2021/07/19 10:35:10;;;;;;;6.37;5.05;;;;;;;45.57;21.91;99316.21;1698030;82;20995;-63
2021/07/19 10:37:48;;;;;;;7.58;4.60;;;;;;;45.59;21.61;99313.03;1701866;82;21001;-64
2021/07/19 10:40:29;;;;;;;9.33;5.37;;;;;;;45.37;21.40;99317.06;1696722;82;21174;-64
2021/07/19 10:43:15;;;;;;;10.25;5.00;;;;;;;44.94;21.26;99310.16;1684906;84;20995;-65
2021/07/19 10:45:50;;;;;;;13.68;5.53;;;;;;;45.03;21.11;99308.88;1672299;82;21070;-61
2021/07/19 10:48:27;;;;;;;12.28;5.42;;;;;;;45.73;20.37;99307.05;1700708;82;21145;-65
2021/07/19 10:50:57;;;;;;;11.22;4.97;;;;;;;46.30;19.58;99312.56;1701942;82;21573;-64
2021/07/19 10:53:29;;;;;;;12.23;5.30;;;;;;;46.75;18.75;99307.13;1664627;84;21157;-60
2021/07/19 10:56:04;;;;;;;10.93;4.90;;;;;;;46.55;18.77;99304.09;1660877;84;21528;-64
2021/07/19 10:58:42;;;;;;;11.90;5.10;;;;;;;46.16;19.11;99304.78;1692464;82;20941;-65
2021/07/19 11:01:23;;;;;;;9.63;4.75;;;;;;;45.93;19.47;99302.63;1693319;82;20974;-60
2021/07/19 11:03:50;;;;;;;8.93;4.87;;;;;;;45.80;20.29;99292.23;1679762;82;21411;-63
2021/07/19 11:06:18;;;;;;;12.50;4.70;;;;;;;45.66;20.72;99302.39;1670721;84;21103;-64
2021/07/19 11:09:07;;;;;;;8.30;5.35;;;;;;;44.95;20.89;99304.05;1656799;85;21576;-64
2021/07/19 11:11:36;;;;;;;7.33;5.15;;;;;;;44.56;20.61;99295.77;1605056;88;20974;-64
2021/07/19 11:14:11;;;;;;;8.03;5.37;;;;;;;44.71;21.57;99298.13;1605194;88;21496;-64
2021/07/19 11:16:44;;;;;;;9.20;5.45;;;;;;;44.86;20.61;99294.48;1604411;88;22028;-61
2021/07/19 11:19:11;;;;;;;10.98;5.87;;;;;;;45.06;20.97;99290.77;1593085;88;22428;-65
2021/07/19 11:21:38;;;;;;;6.83;5.00;;;;;;;45.43;20.40;99287.78;1603652;88;21513;-66
2021/07/19 11:24:09;;;;;;;8.58;4.95;;;;;;;45.61;19.97;99289.33;1604228;88;21036;-65
2021/07/19 11:26:53;;;;;;;9.35;4.45;;;;;;;45.85;19.18;99286.97;1599540;88;21097;-62
2021/07/19 11:29:36;;;;;;;10.10;4.80;;;;;;;46.22;19.58;99285.08;1575969;88;21066;-64
2021/07/19 11:32:17;;;;;;;5.83;4.58;;;;;;;46.63;19.32;99280.42;1594782;88;21145;-61
2021/07/19 11:34:41;;;;;;;8.00;5.27;;;;;;;46.83;19.43;99289.09;1621593;87;21566;-65
2021/07/19 11:37:08;;;;;;;8.13;5.00;;;;;;;46.84;19.43;99284.34;1616975;87;21108;-63